Time;durP1;ratioP1;P1;durP2;ratioP2;P2;SDS_P1;SDS_P2;PMS_P1;PMS_P2;Temp;Humidity;BMP_temperature;BMP_pressure;BME280_temperature;BME280_humidity;BME280_pressure;Samples;Min_cycle;Max_cycle;Signal;HPM_P1;HPM_P2
2021/10/13 00:00:38;;;;;;;0.95;0.57;;;;;;;;;;5075103;28;20102;-64
2021/10/13 00:03:06;;;;;;;1.58;0.80;;;;;;;;;;5075170;28;20128;-64
2021/10/13 00:05:34;;;;;;;1.00;0.70;;;;;;;;;;5071570;28;20135;-65
2021/10/13 00:08:03;;;;;;;0.80;0.70;;;;;;;;;;5077097;28;20079;-65
2021/10/13 00:10:31;;;;;;;0.60;0.50;;;;;;;;;;5072081;28;20484;-63
2021/10/13 00:12:59;;;;;;;1.10;0.70;;;;;;;;;;5071879;28;20426;-65
2021/10/13 00:15:28;;;;;;;1.92;0.90;;;;;;;;;;5078897;28;20536;-64
2021/10/13 00:17:57;;;;;;;1.27;0.57;;;;;;;;;;5066782;28;20044;-64
2021/10/13 00:20:26;;;;;;;0.95;0.70;;;;;;;;;;5078690;28;20144;-64
2021/10/13 00:22:54;;;;;;;1.75;0.80;;;;;;;;;;5071857;28;20131;-65
2021/10/13 00:25:22;;;;;;;1.40;0.65;;;;;;;;;;5077510;28;20056;-66
2021/10/13 00:27:50;;;;;;;1.35;0.60;;;;;;;;;;5078719;28;20162;-64
2021/10/13 00:30:19;;;;;;;1.40;0.90;;;;;;;;;;5074378;28;20148;-65
2021/10/13 00:32:47;;;;;;;1.52;0.90;;;;;;;;;;5078858;28;20138;-64
2021/10/13 00:35:17;;;;;;;1.00;0.70;;;;;;;;;;5079168;28;20080;-65
2021/10/13 00:37:45;;;;;;;2.15;0.70;;;;;;;;;;5067241;28;20139;-65
2021/10/13 00:40:13;;;;;;;1.52;0.85;;;;;;;;;;5069605;28;20051;-64
2021/10/13 00:42:41;;;;;;;2.92;1.15;;;;;;;;;;5065559;28;20050;-64
2021/10/13 00:45:10;;;;;;;3.13;0.93;;;;;;;;;;5073901;28;20564;-64
2021/10/13 00:47:38;;;;;;;2.08;1.10;;;;;;;;;;5070002;28;20109;-65
2021/10/13 00:50:10;;;;;;;2.25;1.30;;;;;;;;;;5071079;28;20054;-65
2021/10/13 00:52:41;;;;;;;2.45;1.20;;;;;;;;;;5051881;28;20127;-64
2021/10/13 00:55:10;;;;;;;2.28;1.25;;;;;;;;;;5061336;28;20568;-64
2021/10/13 00:57:38;;;;;;;1.63;1.20;;;;;;;;;;5070534;28;20044;-65
2021/10/13 01:00:10;;;;;;;2.70;1.35;;;;;;;;;;5070899;28;20151;-65
2021/10/13 01:02:42;;;;;;;2.25;1.60;;;;;;;;;;5063614;28;20055;-64
2021/10/13 01:05:16;;;;;;;3.88;1.70;;;;;;;;;;5060573;28;20377;-63
2021/10/13 01:08:07;;;;;;;3.33;1.85;;;;;;;;;;5062481;28;20041;-64
2021/10/13 01:10:41;;;;;;;2.93;1.70;;;;;;;;;;5070054;28;20135;-64
2021/10/13 01:13:12;;;;;;;4.00;1.88;;;;;;;;;;5055828;28;20746;-65
2021/10/13 01:15:44;;;;;;;4.00;2.03;;;;;;;;;;5065908;28;20144;-64
2021/10/13 01:18:15;;;;;;;2.85;1.58;;;;;;;;;;5068708;28;20080;-66
2021/10/13 01:20:56;;;;;;;3.40;1.95;;;;;;;;;;5069901;28;20136;-64
2021/10/13 01:23:42;;;;;;;4.25;1.52;;;;;;;;;;5064866;28;20076;-65
2021/10/13 01:26:17;;;;;;;2.80;1.63;;;;;;;;;;5027947;28;20415;-64
2021/10/13 01:28:48;;;;;;;3.05;1.80;;;;;;;;;;5062404;28;20049;-66
2021/10/13 01:31:18;;;;;;;4.82;1.90;;;;;;;;;;5066282;28;20067;-64
2021/10/13 01:33:50;;;;;;;4.55;1.60;;;;;;;;;;5059045;28;20072;-64
2021/10/13 01:36:21;;;;;;;3.72;2.22;;;;;;;;;;5070434;28;20080;-64
2021/10/13 01:38:52;;;;;;;3.55;1.77;;;;;;;;;;5053777;28;20577;-64
2021/10/13 01:41:22;;;;;;;3.60;2.00;;;;;;;;;;5063776;28;20135;-64
2021/10/13 01:43:53;;;;;;;5.78;2.05;;;;;;;;;;5055914;28;20052;-64
2021/10/13 01:46:22;;;;;;;3.38;1.90;;;;;;;;;;5037387;28;20125;-64
2021/10/13 01:48:52;;;;;;;2.97;1.88;;;;;;;;;;5048994;28;20867;-64
2021/10/13 01:51:20;;;;;;;3.15;1.90;;;;;;;;;;5063404;28;20140;-64
2021/10/13 01:53:50;;;;;;;3.38;2.05;;;;;;;;;;5059620;28;20079;-64
2021/10/13 01:56:18;;;;;;;4.35;2.60;;;;;;;;;;5050757;28;20045;-64
2021/10/13 01:58:48;;;;;;;4.65;2.08;;;;;;;;;;5052080;28;20448;-64
2021/10/13 02:01:19;;;;;;;3.22;1.77;;;;;;;;;;5055821;28;20128;-66
2021/10/13 02:03:48;;;;;;;6.10;2.65;;;;;;;;;;5055432;28;20040;-65
2021/10/13 02:06:37;;;;;;;3.70;2.08;;;;;;;;;;5050166;28;20059;-65
2021/10/13 02:09:06;;;;;;;3.40;2.05;;;;;;;;;;5050432;28;20048;-63
2021/10/13 02:11:35;;;;;;;3.65;1.88;;;;;;;;;;5048710;28;20136;-64
2021/10/13 02:14:05;;;;;;;4.72;2.10;;;;;;;;;;5052439;28;20049;-63
2021/10/13 02:16:35;;;;;;;4.45;2.92;;;;;;;;;;5044563;28;20089;-65
2021/10/13 02:19:05;;;;;;;3.50;1.77;;;;;;;;;;5034654;28;20123;-64
2021/10/13 02:21:35;;;;;;;5.10;2.33;;;;;;;;;;5045042;28;20079;-64
2021/10/13 02:24:04;;;;;;;4.00;2.17;;;;;;;;;;5065199;28;20051;-65
2021/10/13 02:26:35;;;;;;;3.95;2.38;;;;;;;;;;5055199;28;20497;-65
2021/10/13 02:29:05;;;;;;;3.60;2.47;;;;;;;;;;5060062;28;20067;-64
2021/10/13 02:31:35;;;;;;;4.93;2.80;;;;;;;;;;5049984;28;20389;-65
2021/10/13 02:34:03;;;;;;;4.53;2.70;;;;;;;;;;5061721;28;20052;-65
2021/10/13 02:36:32;;;;;;;4.13;2.30;;;;;;;;;;5054593;28;20478;-64
2021/10/13 02:39:00;;;;;;;3.90;2.40;;;;;;;;;;5039525;28;20128;-64
2021/10/13 02:41:28;;;;;;;5.07;2.53;;;;;;;;;;5055717;28;20095;-65
2021/10/13 02:43:57;;;;;;;3.65;2.13;;;;;;;;;;5049670;28;20132;-66
2021/10/13 02:46:30;;;;;;;6.72;2.78;;;;;;;;;;5049024;28;20140;-64
2021/10/13 02:49:03;;;;;;;5.15;2.38;;;;;;;;;;5049131;28;20380;-65
2021/10/13 02:51:35;;;;;;;3.70;2.42;;;;;;;;;;5050492;28;20057;-64
2021/10/13 02:54:05;;;;;;;4.07;2.22;;;;;;;;;;5043612;28;20087;-63
2021/10/13 02:56:36;;;;;;;5.60;2.72;;;;;;;;;;5044184;28;20080;-64
2021/10/13 02:59:07;;;;;;;5.38;2.83;;;;;;;;;;5051580;28;20047;-64
2021/10/13 03:01:38;;;;;;;3.92;2.58;;;;;;;;;;5061473;28;20123;-63
2021/10/13 03:04:10;;;;;;;4.85;3.00;;;;;;;;;;5049158;28;20067;-64
2021/10/13 03:06:40;;;;;;;5.28;2.90;;;;;;;;;;5054642;28;20088;-64
2021/10/13 03:09:09;;;;;;;5.13;3.05;;;;;;;;;;5046580;28;20049;-64
2021/10/13 03:11:39;;;;;;;5.60;2.90;;;;;;;;;;5047800;28;20148;-66
2021/10/13 03:14:08;;;;;;;5.22;3.08;;;;;;;;;;5048457;28;20101;-65
2021/10/13 03:16:36;;;;;;;4.53;2.40;;;;;;;;;;5054235;28;20095;-65
2021/10/13 03:19:05;;;;;;;6.53;2.83;;;;;;;;;;5056524;28;20091;-67
2021/10/13 03:21:35;;;;;;;4.80;3.25;;;;;;;;;;5048824;28;20481;-64
2021/10/13 03:24:03;;;;;;;4.32;2.78;;;;;;;;;;5069067;28;20062;-64
2021/10/13 03:26:31;;;;;;;4.65;2.60;;;;;;;;;;5057677;28;20220;-66
2021/10/13 03:29:00;;;;;;;5.13;3.10;;;;;;;;;;5045670;28;20045;-67
2021/10/13 03:31:28;;;;;;;5.70;3.00;;;;;;;;;;5051298;28;20044;-65
2021/10/13 03:33:57;;;;;;;6.55;3.05;;;;;;;;;;5051307;28;20527;-65
2021/10/13 03:36:25;;;;;;;6.57;2.95;;;;;;;;;;5050589;28;20413;-65
2021/10/13 03:38:55;;;;;;;5.55;2.92;;;;;;;;;;5050216;28;20053;-66
2021/10/13 03:41:23;;;;;;;5.93;2.88;;;;;;;;;;5051095;28;20127;-68
2021/10/13 03:43:52;;;;;;;5.90;2.83;;;;;;;;;;5050650;28;20396;-64
2021/10/13 03:46:21;;;;;;;4.95;3.13;;;;;;;;;;5070085;28;20182;-64
2021/10/13 03:48:50;;;;;;;5.15;2.78;;;;;;;;;;5070312;28;20500;-64
2021/10/13 03:51:18;;;;;;;4.65;3.20;;;;;;;;;;5070635;28;20076;-65
2021/10/13 03:53:47;;;;;;;6.05;2.80;;;;;;;;;;5069194;28;20108;-63
2021/10/13 03:56:17;;;;;;;5.93;3.25;;;;;;;;;;5072093;28;20412;-64
2021/10/13 03:58:45;;;;;;;4.80;2.53;;;;;;;;;;5070277;28;20084;-65
2021/10/13 04:01:14;;;;;;;6.13;2.92;;;;;;;;;;5070141;28;20045;-65
2021/10/13 04:03:42;;;;;;;5.43;2.40;;;;;;;;;;5068383;28;20045;-65
2021/10/13 04:06:11;;;;;;;4.45;2.53;;;;;;;;;;5068713;28;20128;-65
2021/10/13 04:08:57;;;;;;;3.08;1.95;;;;;;;;;;4221122;28;10002051;-65
2021/10/13 04:11:27;;;;;;;4.85;2.65;;;;;;;;;;1754805;28;10002062;-65
2021/10/13 04:13:55;;;;;;;4.63;2.78;;;;;;;;;;5066730;28;20080;-64
2021/10/13 04:16:23;;;;;;;3.42;2.53;;;;;;;;;;5074360;28;20143;-65
2021/10/13 04:18:52;;;;;;;5.72;3.05;;;;;;;;;;5070597;28;20049;-64
2021/10/13 04:21:20;;;;;;;5.82;3.15;;;;;;;;;;5077558;28;20045;-66
2021/10/13 04:23:48;;;;;;;6.78;3.65;;;;;;;;;;5071131;28;20559;-68
2021/10/13 04:26:17;;;;;;;5.88;2.97;;;;;;;;;;5066762;28;20105;-65
2021/10/13 04:28:47;;;;;;;6.15;3.33;;;;;;;;;;5080976;28;20105;-65
2021/10/13 04:31:16;;;;;;;4.57;2.90;;;;;;;;;;5077077;28;20044;-64
2021/10/13 04:33:44;;;;;;;6.70;2.92;;;;;;;;;;5077039;28;20052;-65
2021/10/13 04:36:12;;;;;;;4.82;2.78;;;;;;;;;;5072408;28;20501;-64
2021/10/13 04:38:41;;;;;;;6.78;3.55;;;;;;;;;;5070919;28;20121;-62
2021/10/13 04:41:09;;;;;;;5.35;2.83;;;;;;;;;;5071744;28;20404;-62
2021/10/13 04:43:37;;;;;;;5.47;2.80;;;;;;;;;;5076237;28;20135;-62
2021/10/13 04:46:07;;;;;;;4.45;2.80;;;;;;;;;;5083149;28;20139;-62
2021/10/13 04:48:35;;;;;;;6.65;2.90;;;;;;;;;;5071696;28;20049;-62
2021/10/13 04:51:03;;;;;;;7.82;3.70;;;;;;;;;;5079728;28;20415;-62
2021/10/13 04:53:32;;;;;;;5.60;3.30;;;;;;;;;;5070166;28;20364;-62
2021/10/13 04:56:00;;;;;;;5.70;3.50;;;;;;;;;;5073694;28;20151;-61
2021/10/13 04:58:29;;;;;;;7.80;3.65;;;;;;;;;;5070238;28;20051;-63
2021/10/13 05:00:57;;;;;;;7.00;3.25;;;;;;;;;;5071189;28;20475;-62
2021/10/13 05:03:27;;;;;;;6.00;3.35;;;;;;;;;;5083487;28;20135;-62
2021/10/13 05:05:55;;;;;;;6.00;3.47;;;;;;;;;;5070016;28;20504;-63
2021/10/13 05:08:24;;;;;;;8.05;3.50;;;;;;;;;;5080239;28;20556;-64
2021/10/13 05:10:52;;;;;;;8.38;3.50;;;;;;;;;;5064687;28;20123;-64
2021/10/13 05:13:20;;;;;;;7.15;3.47;;;;;;;;;;5079172;28;20134;-63
2021/10/13 05:15:49;;;;;;;8.10;3.78;;;;;;;;;;5082937;28;20541;-67
2021/10/13 05:18:17;;;;;;;6.25;3.20;;;;;;;;;;5067163;28;20064;-63
2021/10/13 05:20:47;;;;;;;6.85;3.45;;;;;;;;;;5069851;28;20048;-64
2021/10/13 05:23:15;;;;;;;5.80;3.10;;;;;;;;;;5071141;28;20078;-63
2021/10/13 05:25:47;;;;;;;6.00;3.30;;;;;;;;;;5071298;28;20083;-67
2021/10/13 05:28:15;;;;;;;6.22;3.53;;;;;;;;;;5063685;28;20520;-65
2021/10/13 05:30:44;;;;;;;7.70;3.20;;;;;;;;;;5078859;28;20343;-64
2021/10/13 05:33:12;;;;;;;6.65;2.80;;;;;;;;;;5061760;28;20101;-64
2021/10/13 05:35:41;;;;;;;6.53;3.28;;;;;;;;;;5068115;28;20421;-63
2021/10/13 05:38:11;;;;;;;5.65;3.00;;;;;;;;;;5067587;28;20049;-64
2021/10/13 05:40:39;;;;;;;6.80;2.95;;;;;;;;;;5072484;28;20047;-65
2021/10/13 05:43:08;;;;;;;6.15;2.72;;;;;;;;;;5066182;28;20063;-64
2021/10/13 05:45:37;;;;;;;5.82;3.55;;;;;;;;;;5050984;28;20099;-63
2021/10/13 05:48:06;;;;;;;6.72;3.35;;;;;;;;;;5078543;28;20122;-63
2021/10/13 05:50:34;;;;;;;4.65;3.08;;;;;;;;;;5070672;28;20091;-63
2021/10/13 05:53:02;;;;;;;7.10;3.40;;;;;;;;;;5073538;28;20552;-63
2021/10/13 05:55:44;;;;;;;7.38;3.42;;;;;;;;;;5090724;28;20762;-63
2021/10/13 05:58:15;;;;;;;6.63;3.53;;;;;;;;;;5075597;28;20036;-64
2021/10/13 06:00:44;;;;;;;8.77;3.40;;;;;;;;;;5087407;28;20144;-64
2021/10/13 06:03:13;;;;;;;6.43;3.17;;;;;;;;;;5068740;28;20551;-63
2021/10/13 06:05:42;;;;;;;6.18;3.13;;;;;;;;;;5056949;28;20364;-63
2021/10/13 06:08:10;;;;;;;7.10;3.70;;;;;;;;;;5070775;28;20143;-63
2021/10/13 06:10:39;;;;;;;5.40;3.00;;;;;;;;;;5067613;28;20053;-64
2021/10/13 06:13:08;;;;;;;8.45;3.28;;;;;;;;;;5068090;28;20131;-63
2021/10/13 06:15:38;;;;;;;5.60;2.88;;;;;;;;;;5069269;28;20044;-64
2021/10/13 06:18:06;;;;;;;9.05;3.45;;;;;;;;;;5066358;28;20102;-65
2021/10/13 06:20:34;;;;;;;7.00;3.45;;;;;;;;;;5070273;28;20091;-63
2021/10/13 06:23:03;;;;;;;8.02;3.53;;;;;;;;;;5071501;28;20041;-62
2021/10/13 06:25:32;;;;;;;7.55;4.03;;;;;;;;;;5082966;28;20048;-63
2021/10/13 06:28:00;;;;;;;13.48;4.82;;;;;;;;;;5082263;28;20056;-64
2021/10/13 06:30:32;;;;;;;8.60;4.13;;;;;;;;;;5063489;28;20083;-64
2021/10/13 06:33:00;;;;;;;9.27;4.18;;;;;;;;;;5057268;28;20053;-64
2021/10/13 06:35:28;;;;;;;10.40;4.25;;;;;;;;;;5060183;28;20068;-64
2021/10/13 06:37:57;;;;;;;9.75;4.78;;;;;;;;;;5069479;28;20098;-63
2021/10/13 06:40:25;;;;;;;11.35;5.13;;;;;;;;;;5070014;28;20045;-64
2021/10/13 06:42:53;;;;;;;11.63;4.80;;;;;;;;;;5071150;28;20119;-64
2021/10/13 06:45:22;;;;;;;15.80;5.40;;;;;;;;;;5089382;28;20082;-63
2021/10/13 06:47:51;;;;;;;12.48;5.75;;;;;;;;;;5079765;28;20132;-63
2021/10/13 06:50:20;;;;;;;12.70;5.85;;;;;;;;;;5084791;28;20091;-63
2021/10/13 06:52:48;;;;;;;15.07;6.10;;;;;;;;;;5068631;28;20056;-64
2021/10/13 06:55:16;;;;;;;11.75;5.78;;;;;;;;;;5068608;28;20055;-63
2021/10/13 06:57:45;;;;;;;11.18;5.78;;;;;;;;;;5078310;28;20102;-63
2021/10/13 07:00:14;;;;;;;12.88;5.75;;;;;;;;;;5060249;28;20151;-64
2021/10/13 07:02:42;;;;;;;14.32;6.30;;;;;;;;;;5082861;28;20075;-65
2021/10/13 07:05:12;;;;;;;15.68;6.45;;;;;;;;;;5070794;28;20053;-64
2021/10/13 07:07:44;;;;;;;13.90;5.40;;;;;;;;;;5071258;28;20135;-65
2021/10/13 07:10:13;;;;;;;12.77;5.40;;;;;;;;;;5072510;28;20382;-64
2021/10/13 07:12:47;;;;;;;13.32;5.80;;;;;;;;;;5082119;28;20041;-62
2021/10/13 07:15:16;;;;;;;10.10;5.90;;;;;;;;;;5074512;28;20049;-63
2021/10/13 07:17:45;;;;;;;12.88;6.25;;;;;;;;;;5071467;28;20059;-63
2021/10/13 07:20:15;;;;;;;9.07;5.18;;;;;;;;;;5060989;28;20053;-64
2021/10/13 07:22:43;;;;;;;10.13;5.15;;;;;;;;;;5078550;28;20055;-64
2021/10/13 07:25:12;;;;;;;14.57;5.60;;;;;;;;;;5068760;28;20457;-63
2021/10/13 07:27:40;;;;;;;12.57;5.68;;;;;;;;;;5068152;28;20052;-62
2021/10/13 07:30:13;;;;;;;13.45;6.07;;;;;;;;;;5068827;28;20056;-63
2021/10/13 07:32:41;;;;;;;11.63;5.50;;;;;;;;;;5064166;28;20041;-65
2021/10/13 07:35:27;;;;;;;10.48;5.28;;;;;;;;;;5071615;28;20048;-63
2021/10/13 07:37:57;;;;;;;9.85;5.45;;;;;;;;;;5073466;28;20386;-62
2021/10/13 07:40:26;;;;;;;15.90;6.10;;;;;;;;;;5072479;28;20497;-64
2021/10/13 07:42:55;;;;;;;10.55;5.32;;;;;;;;;;5070589;28;20087;-63
2021/10/13 07:45:23;;;;;;;10.55;5.15;;;;;;;;;;5072172;28;20076;-64
2021/10/13 07:47:51;;;;;;;10.82;5.13;;;;;;;;;;5073386;28;20098;-67
2021/10/13 07:50:20;;;;;;;11.95;5.40;;;;;;;;;;5069238;28;20053;-62
2021/10/13 07:52:50;;;;;;;13.40;6.10;;;;;;;;;;5070856;28;20513;-63
2021/10/13 07:55:18;;;;;;;11.25;5.88;;;;;;;;;;5063687;28;20060;-64
2021/10/13 07:57:47;;;;;;;10.98;5.18;;;;;;;;;;5072480;28;20147;-62
2021/10/13 08:00:16;;;;;;;11.98;5.63;;;;;;;;;;5070318;28;20044;-63
2021/10/13 08:02:45;;;;;;;9.48;5.43;;;;;;;;;;5068694;28;20044;-63
2021/10/13 08:05:15;;;;;;;10.55;6.03;;;;;;;;;;5068189;28;20045;-63
2021/10/13 08:07:46;;;;;;;10.68;5.95;;;;;;;;;;5063975;28;20067;-62
2021/10/13 08:10:16;;;;;;;8.77;4.95;;;;;;;;;;5070807;28;20684;-63
2021/10/13 08:12:45;;;;;;;9.02;5.00;;;;;;;;;;5054139;28;20048;-67
2021/10/13 08:15:15;;;;;;;9.02;4.60;;;;;;;;;;5063207;28;20326;-64
2021/10/13 08:17:44;;;;;;;8.48;4.53;;;;;;;;;;5061740;28;20045;-63
2021/10/13 08:20:14;;;;;;;12.05;5.00;;;;;;;;;;5071962;28;20056;-63
2021/10/13 08:22:43;;;;;;;11.88;4.88;;;;;;;;;;5054844;28;20824;-65
2021/10/13 08:25:11;;;;;;;9.65;4.93;;;;;;;;;;5071996;28;20044;-63
2021/10/13 08:27:42;;;;;;;9.55;4.72;;;;;;;;;;5056864;28;20105;-67
2021/10/13 08:30:11;;;;;;;9.68;4.90;;;;;;;;;;5070314;28;20056;-63
2021/10/13 08:32:39;;;;;;;9.68;4.93;;;;;;;;;;5081036;28;20048;-64
2021/10/13 08:35:08;;;;;;;10.18;5.70;;;;;;;;;;5068285;28;20357;-65
2021/10/13 08:37:37;;;;;;;13.25;4.88;;;;;;;;;;5081478;28;20044;-63
2021/10/13 08:40:07;;;;;;;10.00;5.30;;;;;;;;;;5079307;28;20037;-63
2021/10/13 08:42:36;;;;;;;9.65;5.10;;;;;;;;;;5073265;28;20054;-63
2021/10/13 08:45:07;;;;;;;11.25;4.57;;;;;;;;;;5068156;28;20091;-68
2021/10/13 08:47:35;;;;;;;8.10;4.90;;;;;;;;;;5070364;28;20041;-64
2021/10/13 08:50:04;;;;;;;9.00;4.13;;;;;;;;;;5071253;28;20496;-63
2021/10/13 08:52:32;;;;;;;6.53;3.60;;;;;;;;;;5070522;28;20086;-63
2021/10/13 08:55:01;;;;;;;9.00;4.65;;;;;;;;;;5086445;28;20519;-63
2021/10/13 08:57:30;;;;;;;8.27;3.85;;;;;;;;;;5071342;28;20045;-63
2021/10/13 08:59:59;;;;;;;5.15;3.03;;;;;;;;;;5074083;28;20067;-63
2021/10/13 09:02:39;;;;;;;7.07;2.90;;;;;;;;;;5084875;28;20044;-65
2021/10/13 09:05:09;;;;;;;11.25;3.17;;;;;;;;;;5018046;28;20052;-62
2021/10/13 09:07:38;;;;;;;9.90;3.38;;;;;;;;;;5065955;28;20049;-63
2021/10/13 09:10:10;;;;;;;6.88;3.40;;;;;;;;;;5081361;28;20048;-64
2021/10/13 09:12:38;;;;;;;9.57;4.25;;;;;;;;;;5074483;28;20179;-64
2021/10/13 09:15:08;;;;;;;9.15;3.50;;;;;;;;;;5068759;28;20205;-63
2021/10/13 09:17:55;;;;;;;4.57;2.58;;;;;;;;;;5056380;28;20064;-64
2021/10/13 09:20:25;;;;;;;6.72;3.58;;;;;;;;;;5060967;28;20040;-67
2021/10/13 09:23:00;;;;;;;6.38;3.15;;;;;;;;;;5069852;28;20106;-62
2021/10/13 09:25:29;;;;;;;6.30;3.03;;;;;;;;;;5067054;28;20040;-65
2021/10/13 09:27:58;;;;;;;7.10;3.30;;;;;;;;;;5063895;28;20048;-63
2021/10/13 09:30:28;;;;;;;7.05;2.85;;;;;;;;;;5065912;28;20084;-63
2021/10/13 09:33:08;;;;;;;5.63;2.45;;;;;;;;;;5077929;28;20041;-63
2021/10/13 09:35:41;;;;;;;4.00;2.28;;;;;;;;;;5076751;28;20055;-63
2021/10/13 09:38:12;;;;;;;4.78;2.28;;;;;;;;;;5070308;28;20426;-63
2021/10/13 09:40:41;;;;;;;9.95;3.35;;;;;;;;;;5069733;28;20075;-63
2021/10/13 09:43:27;;;;;;;9.57;3.33;;;;;;;;;;5085619;28;20498;-64
2021/10/13 09:46:01;;;;;;;7.03;2.65;;;;;;;;;;5072228;28;20044;-63
2021/10/13 09:48:31;;;;;;;5.03;2.78;;;;;;;;;;5069256;28;20045;-63
2021/10/13 09:51:12;;;;;;;6.00;3.00;;;;;;;;;;5070548;28;20051;-62
2021/10/13 09:53:41;;;;;;;5.03;3.22;;;;;;;;;;5067261;28;20044;-63
2021/10/13 09:56:24;;;;;;;9.93;3.33;;;;;;;;;;5074451;28;20032;-63
2021/10/13 09:58:52;;;;;;;4.93;3.00;;;;;;;;;;5064986;28;20439;-63
2021/10/13 10:01:22;;;;;;;6.32;2.55;;;;;;;;;;5068132;28;20052;-64
2021/10/13 10:03:53;;;;;;;5.70;3.03;;;;;;;;;;5065501;28;20127;-62
2021/10/13 10:06:27;;;;;;;6.00;3.03;;;;;;;;;;5058277;28;20041;-63
2021/10/13 10:09:02;;;;;;;5.72;2.83;;;;;;;;;;5059246;28;20047;-65
2021/10/13 10:11:31;;;;;;;5.20;2.65;;;;;;;;;;5073081;28;20045;-63
2021/10/13 10:14:00;;;;;;;7.82;2.40;;;;;;;;;;5072521;28;20059;-63
2021/10/13 10:16:29;;;;;;;5.75;2.65;;;;;;;;;;5065849;28;20459;-63
2021/10/13 10:19:21;;;;;;;4.47;2.45;;;;;;;;;;5064558;28;20057;-64
2021/10/13 10:21:55;;;;;;;5.68;3.05;;;;;;;;;;5029103;28;20463;-64
2021/10/13 10:24:25;;;;;;;4.93;3.13;;;;;;;;;;5079751;28;20072;-64
2021/10/13 10:26:54;;;;;;;5.05;2.40;;;;;;;;;;5076748;28;20088;-64
2021/10/13 10:29:22;;;;;;;6.35;3.03;;;;;;;;;;5077060;28;20056;-63
2021/10/13 10:31:58;;;;;;;4.78;2.85;;;;;;;;;;5070801;28;20048;-63
2021/10/13 10:34:27;;;;;;;4.55;2.70;;;;;;;;;;5070375;28;20105;-63
2021/10/13 10:37:16;;;;;;;4.85;2.63;;;;;;;;;;5054905;28;20124;-64
2021/10/13 10:40:09;;;;;;;7.32;2.28;;;;;;;;;;5071973;28;20655;-63
2021/10/13 10:42:57;;;;;;;5.97;3.25;;;;;;;;;;5060820;28;20407;-63
2021/10/13 10:45:27;;;;;;;4.63;2.35;;;;;;;;;;5054728;28;20555;-63
2021/10/13 10:47:57;;;;;;;4.35;2.25;;;;;;;;;;5064683;28;20132;-64
2021/10/13 10:50:33;;;;;;;6.68;2.42;;;;;;;;;;5062670;28;20049;-65
2021/10/13 10:53:10;;;;;;;4.63;1.92;;;;;;;;;;5062858;28;20052;-63
2021/10/13 10:55:39;;;;;;;7.07;2.85;;;;;;;;;;5089305;28;20094;-64
2021/10/13 10:58:15;;;;;;;4.65;2.60;;;;;;;;;;5058501;28;20054;-63
2021/10/13 11:00:44;;;;;;;6.35;2.80;;;;;;;;;;5070870;28;20048;-63
2021/10/13 11:03:20;;;;;;;4.40;2.63;;;;;;;;;;5082206;28;20399;-63
2021/10/13 11:05:54;;;;;;;8.13;2.83;;;;;;;;;;5061151;28;20120;-62
2021/10/13 11:08:25;;;;;;;5.35;3.03;;;;;;;;;;5079288;28;20458;-62
2021/10/13 11:10:53;;;;;;;5.80;2.90;;;;;;;;;;5068501;28;20114;-64
2021/10/13 11:13:24;;;;;;;4.88;2.65;;;;;;;;;;5077500;28;20496;-62
2021/10/13 11:15:53;;;;;;;6.25;2.90;;;;;;;;;;5069038;28;20049;-63
2021/10/13 11:18:22;;;;;;;5.72;2.97;;;;;;;;;;5071738;28;20420;-63
2021/10/13 11:20:51;;;;;;;6.90;2.28;;;;;;;;;;5057604;28;20130;-63
2021/10/13 11:23:19;;;;;;;5.18;2.35;;;;;;;;;;5070738;28;20248;-63
2021/10/13 11:25:54;;;;;;;5.18;2.03;;;;;;;;;;5070869;28;20051;-63
2021/10/13 11:28:23;;;;;;;4.47;2.00;;;;;;;;;;5082707;28;20404;-63
2021/10/13 11:30:52;;;;;;;5.43;2.05;;;;;;;;;;5078802;28;20061;-64
2021/10/13 11:33:21;;;;;;;6.20;1.83;;;;;;;;;;5069372;28;20044;-66
2021/10/13 11:35:50;;;;;;;3.55;2.33;;;;;;;;;;5069097;28;20056;-63
2021/10/13 11:38:20;;;;;;;4.43;2.60;;;;;;;;;;5069333;28;20131;-63
2021/10/13 11:40:50;;;;;;;4.13;2.30;;;;;;;;;;5072440;28;20044;-63
2021/10/13 11:43:19;;;;;;;7.47;3.00;;;;;;;;;;5059698;28;20489;-63
2021/10/13 11:45:48;;;;;;;5.55;2.47;;;;;;;;;;5056570;28;20063;-63
2021/10/13 11:48:23;;;;;;;5.35;2.58;;;;;;;;;;5066105;28;20487;-65
2021/10/13 11:50:53;;;;;;;;;;;;;;;;;;5072727;28;20048;-63
2021/10/13 11:53:21;;;;;;;3.00;1.77;;;;;;;;;;5071124;28;19924;-62
2021/10/13 11:55:51;;;;;;;1.98;1.17;;;;;;;;;;5085457;28;20508;-62
2021/10/13 11:58:24;;;;;;;2.60;1.05;;;;;;;;;;5073241;28;20091;-63
2021/10/13 12:00:52;;;;;;;2.17;1.20;;;;;;;;;;5079076;28;20086;-62
2021/10/13 12:03:29;;;;;;;1.73;1.10;;;;;;;;;;5072140;28;20090;-63
2021/10/13 12:05:58;;;;;;;2.30;0.98;;;;;;;;;;5062637;28;20419;-63
2021/10/13 12:08:27;;;;;;;1.75;0.93;;;;;;;;;;5072879;28;20138;-62
2021/10/13 12:10:58;;;;;;;1.35;0.75;;;;;;;;;;5071075;28;20392;-64
2021/10/13 12:13:27;;;;;;;4.57;0.90;;;;;;;;;;5061598;28;20522;-62
2021/10/13 12:16:20;;;;;;;5.78;1.05;;;;;;;;;;5073832;28;20574;-62
2021/10/13 12:18:49;;;;;;;1.52;0.80;;;;;;;;;;5068926;28;20463;-63
2021/10/13 12:21:19;;;;;;;1.88;0.90;;;;;;;;;;5069012;28;20507;-63
2021/10/13 12:23:48;;;;;;;1.95;1.05;;;;;;;;;;5064811;28;20140;-63
2021/10/13 12:26:19;;;;;;;1.42;0.85;;;;;;;;;;5069044;28;20044;-62
2021/10/13 12:28:51;;;;;;;2.10;1.10;;;;;;;;;;5069139;28;20048;-62
2021/10/13 12:31:20;;;;;;;4.15;1.17;;;;;;;;;;5075703;28;20048;-64
2021/10/13 12:33:49;;;;;;;1.55;1.00;;;;;;;;;;5081355;28;20135;-65
2021/10/13 12:36:19;;;;;;;2.35;1.30;;;;;;;;;;5070297;28;20155;-63
2021/10/13 12:38:50;;;;;;;2.42;1.40;;;;;;;;;;5062263;28;20057;-63
2021/10/13 12:41:20;;;;;;;5.50;1.50;;;;;;;;;;5068061;28;20480;-66
2021/10/13 12:43:49;;;;;;;1.98;1.30;;;;;;;;;;5068474;28;20125;-66
2021/10/13 12:46:18;;;;;;;4.38;1.58;;;;;;;;;;5064644;28;20068;-64
2021/10/13 12:48:48;;;;;;;2.60;1.30;;;;;;;;;;5062558;28;20053;-63
2021/10/13 12:51:17;;;;;;;3.13;1.52;;;;;;;;;;5072719;28;20072;-62
2021/10/13 12:53:47;;;;;;;2.25;1.45;;;;;;;;;;5070594;28;20052;-64
2021/10/13 12:56:17;;;;;;;2.72;1.13;;;;;;;;;;5067282;28;20504;-62
2021/10/13 12:58:49;;;;;;;2.03;1.20;;;;;;;;;;5062645;28;20253;-64
2021/10/13 13:01:17;;;;;;;5.18;1.38;;;;;;;;;;5078168;28;20105;-62
2021/10/13 13:03:46;;;;;;;2.03;1.10;;;;;;;;;;5074502;28;20502;-62
2021/10/13 13:06:14;;;;;;;5.72;1.35;;;;;;;;;;5058520;28;20049;-62
2021/10/13 13:08:43;;;;;;;2.75;1.25;;;;;;;;;;5061241;28;20052;-64
2021/10/13 13:11:11;;;;;;;3.58;1.52;;;;;;;;;;5061421;28;20131;-64
2021/10/13 13:13:40;;;;;;;3.85;1.52;;;;;;;;;;5051911;28;20107;-65
2021/10/13 13:16:09;;;;;;;4.80;1.67;;;;;;;;;;5061123;28;20044;-63
2021/10/13 13:18:38;;;;;;;2.38;1.38;;;;;;;;;;5067409;28;20057;-64
2021/10/13 13:21:06;;;;;;;4.55;1.92;;;;;;;;;;5062993;28;20052;-65
2021/10/13 13:23:35;;;;;;;3.15;1.85;;;;;;;;;;5056031;28;20065;-63
2021/10/13 13:26:03;;;;;;;2.75;1.17;;;;;;;;;;5050869;28;20099;-63
2021/10/13 13:28:32;;;;;;;2.20;1.40;;;;;;;;;;5050939;28;20106;-63
2021/10/13 13:31:00;;;;;;;2.85;1.27;;;;;;;;;;5052205;28;20053;-63
2021/10/13 13:33:30;;;;;;;5.72;1.85;;;;;;;;;;5072634;28;20046;-63
2021/10/13 13:35:59;;;;;;;1.85;1.33;;;;;;;;;;5081201;28;20048;-64
2021/10/13 13:38:27;;;;;;;5.18;1.73;;;;;;;;;;5067886;28;20119;-62
2021/10/13 13:40:56;;;;;;;2.90;1.08;;;;;;;;;;5063492;28;20132;-64
2021/10/13 13:43:25;;;;;;;2.10;0.88;;;;;;;;;;5069188;28;20052;-66
2021/10/13 13:45:53;;;;;;;2.85;0.95;;;;;;;;;;5059497;28;20056;-62
2021/10/13 13:48:22;;;;;;;3.10;0.73;;;;;;;;;;5074921;28;20076;-62
2021/10/13 13:50:52;;;;;;;1.83;0.80;;;;;;;;;;5067885;28;20148;-63
2021/10/13 13:53:20;;;;;;;5.22;0.93;;;;;;;;;;5065405;28;20067;-63
2021/10/13 13:55:49;;;;;;;5.22;0.90;;;;;;;;;;5069023;28;20059;-65
2021/10/13 13:58:17;;;;;;;7.15;1.13;;;;;;;;;;5068967;28;20041;-63
2021/10/13 14:00:46;;;;;;;4.55;0.85;;;;;;;;;;5070040;28;20508;-63
2021/10/13 14:03:15;;;;;;;1.05;0.50;;;;;;;;;;5077517;28;20071;-62
2021/10/13 14:05:44;;;;;;;0.80;0.60;;;;;;;;;;5072989;28;20492;-63
2021/10/13 14:08:14;;;;;;;1.23;0.52;;;;;;;;;;5062136;28;20053;-62
2021/10/13 14:10:50;;;;;;;4.50;0.68;;;;;;;;;;5060352;28;20144;-64
2021/10/13 14:13:19;;;;;;;2.97;0.90;;;;;;;;;;5068480;28;20092;-62
2021/10/13 14:15:48;;;;;;;2.35;0.90;;;;;;;;;;5082945;28;20051;-62
2021/10/13 14:18:16;;;;;;;3.58;1.23;;;;;;;;;;5078797;28;20138;-62
2021/10/13 14:20:45;;;;;;;1.33;0.90;;;;;;;;;;5072594;28;20052;-63
2021/10/13 14:23:15;;;;;;;1.27;0.98;;;;;;;;;;5064362;28;20052;-63
2021/10/13 14:25:44;;;;;;;2.88;0.80;;;;;;;;;;5070777;28;20048;-64
2021/10/13 14:28:12;;;;;;;2.88;1.23;;;;;;;;;;5064468;28;20044;-64
2021/10/13 14:30:41;;;;;;;4.00;1.40;;;;;;;;;;5066892;28;20102;-64
2021/10/13 14:33:10;;;;;;;3.17;1.05;;;;;;;;;;5064919;28;20056;-63
2021/10/13 14:35:39;;;;;;;1.25;0.65;;;;;;;;;;5070217;28;20515;-64
2021/10/13 14:38:07;;;;;;;3.35;1.02;;;;;;;;;;5057139;28;20461;-62
2021/10/13 14:40:38;;;;;;;1.52;1.00;;;;;;;;;;5067778;28;20143;-62
2021/10/13 14:43:07;;;;;;;5.18;1.10;;;;;;;;;;5072338;28;20393;-63
2021/10/13 14:45:36;;;;;;;1.40;0.70;;;;;;;;;;5064674;28;20175;-62
2021/10/13 14:48:05;;;;;;;1.45;0.75;;;;;;;;;;5068164;28;20068;-63
2021/10/13 14:50:34;;;;;;;2.85;0.85;;;;;;;;;;5067292;28;20060;-62
2021/10/13 14:53:03;;;;;;;1.67;0.73;;;;;;;;;;5061042;28;20057;-64
2021/10/13 14:55:32;;;;;;;2.03;0.75;;;;;;;;;;5059761;28;20504;-62
2021/10/13 14:58:03;;;;;;;3.28;0.75;;;;;;;;;;5059792;28;20083;-63